Time;durP1;ratioP1;P1;durP2;ratioP2;P2;SDS_P1;SDS_P2;PMS_P1;PMS_P2;Temp;Humidity;BMP_temperature;BMP_pressure;BME280_temperature;BME280_humidity;BME280_pressure;Samples;Min_cycle;Max_cycle;Signal;HPM_P1;HPM_P2
2022/06/18 00:01:50;;;;;;;5.82;4.03;;;20.40;99.90;;;;;;5093905;28;20040;-77
2022/06/18 00:04:19;;;;;;;9.07;4.10;;;20.30;99.90;;;;;;5093990;28;20199;-76
2022/06/18 00:06:53;;;;;;;6.63;4.43;;;20.30;99.90;;;;;;5093630;28;20067;-75
2022/06/18 00:09:23;;;;;;;5.43;3.97;;;20.20;99.90;;;;;;5100278;28;20063;-76
2022/06/18 00:14:38;;;;;;;7.20;4.30;;;20.10;99.90;;;;;;5090637;28;20430;-78
2022/06/18 00:17:15;;;;;;;5.53;3.83;;;20.00;99.90;;;;;;5093487;28;20096;-76
2022/06/18 00:19:41;;;;;;;6.60;4.30;;;20.00;99.90;;;;;;5091541;28;20042;-76
2022/06/18 00:22:13;;;;;;;5.45;4.10;;;20.00;99.90;;;;;;5076860;28;20522;-77
2022/06/18 00:24:39;;;;;;;5.32;4.28;;;19.90;99.90;;;;;;5093547;28;20039;-76
2022/06/18 00:27:05;;;;;;;6.25;4.47;;;19.90;99.90;;;;;;5076095;28;20118;-76
2022/06/18 00:29:30;;;;;;;6.60;4.38;;;19.90;99.90;;;;;;5093451;28;20432;-76
2022/06/18 00:31:56;;;;;;;6.05;4.50;;;19.80;99.90;;;;;;5093066;28;20070;-77
2022/06/18 00:34:21;;;;;;;4.60;4.00;;;19.80;99.90;;;;;;5093027;28;20032;-77
2022/06/18 00:36:47;;;;;;;7.05;4.40;;;19.90;99.90;;;;;;5092904;28;20067;-76
2022/06/18 00:39:15;;;;;;;6.45;4.32;;;19.80;99.90;;;;;;5093319;28;20045;-76
2022/06/18 00:41:44;;;;;;;6.20;4.57;;;19.80;99.90;;;;;;5076653;28;20369;-76
2022/06/18 00:44:30;;;;;;;6.38;4.40;;;19.80;99.90;;;;;;5111398;28;20089;-76
2022/06/18 00:47:20;;;;;;;5.80;4.63;;;19.70;99.90;;;;;;5092988;28;20064;-76
2022/06/18 00:50:02;;;;;;;9.82;4.75;;;19.60;99.90;;;;;;5092891;28;20050;-75
2022/06/18 00:52:39;;;;;;;5.68;4.57;;;19.60;99.90;;;;;;5093144;28;20538;-77
2022/06/18 00:55:10;;;;;;;7.07;5.05;;;19.60;99.90;;;;;;5093030;28;20480;-77
2022/06/18 00:57:43;;;;;;;7.88;5.15;;;19.50;99.90;;;;;;5092631;28;20043;-77
2022/06/18 01:00:23;;;;;;;7.20;5.22;;;19.50;99.90;;;;;;5075413;28;20118;-77
2022/06/18 01:02:50;;;;;;;6.80;5.15;;;19.40;99.90;;;;;;5092039;28;20036;-76
2022/06/18 01:05:18;;;;;;;;;;;19.40;99.90;;;;;;5097391;28;20042;-74
2022/06/18 01:07:46;;;;;;;7.03;5.35;;;19.30;99.90;;;;;;5094993;28;19959;-77
2022/06/18 01:10:34;;;;;;;6.93;5.00;;;19.30;99.90;;;;;;5092146;28;20044;-77
2022/06/18 01:13:01;;;;;;;;;;;19.30;99.90;;;;;;5090829;28;20074;-77
2022/06/18 01:15:27;;;;;;;8.85;5.20;;;19.30;99.90;;;;;;5092677;28;19927;-76
2022/06/18 01:17:54;;;;;;;7.47;5.60;;;19.30;99.90;;;;;;5092104;28;20035;-76
2022/06/18 01:20:22;;;;;;;8.77;5.68;;;19.30;99.90;;;;;;5092594;28;20028;-76
2022/06/18 01:23:09;;;;;;;5.88;4.82;;;19.30;99.90;;;;;;5092648;28;20044;-76
2022/06/18 01:25:36;;;;;;;6.25;5.25;;;19.40;99.90;;;;;;5092181;28;20083;-76
2022/06/18 01:28:02;;;;;;;6.30;5.32;;;19.40;99.90;;;;;;5092200;28;20375;-76
2022/06/18 01:30:35;;;;;;;7.85;5.18;;;19.40;99.90;;;;;;5092009;28;20130;-77
2022/06/18 01:33:02;;;;;;;6.82;4.88;;;19.40;99.90;;;;;;5091898;28;20039;-76
2022/06/18 01:35:29;;;;;;;8.75;5.40;;;19.40;99.90;;;;;;5092200;28;20036;-76
2022/06/18 01:37:56;;;;;;;6.90;5.90;;;19.40;99.90;;;;;;5075191;28;20039;-76
2022/06/18 01:40:30;;;;;;;8.57;5.43;;;19.40;99.90;;;;;;5091965;28;20089;-77
2022/06/18 01:43:00;;;;;;;6.97;5.38;;;19.40;99.90;;;;;;5091785;28;20087;-76
2022/06/18 01:45:30;;;;;;;9.35;5.95;;;19.40;99.90;;;;;;5091753;28;20088;-77
2022/06/18 01:48:02;;;;;;;8.50;5.80;;;19.40;99.90;;;;;;5091864;28;20092;-76
2022/06/18 01:50:42;;;;;;;10.27;5.75;;;19.40;99.90;;;;;;5089666;28;20063;-76
2022/06/18 01:53:16;;;;;;;6.72;5.78;;;19.30;99.90;;;;;;5091743;28;20039;-77
2022/06/18 01:56:06;;;;;;;8.73;5.60;;;19.30;99.90;;;;;;5091931;28;20512;-77
2022/06/18 01:58:54;;;;;;;9.68;6.20;;;19.30;99.90;;;;;;5074414;28;20058;-76
2022/06/18 02:01:26;;;;;;;9.98;5.80;;;19.20;99.90;;;;;;5092299;28;20476;-76
2022/06/18 02:03:55;;;;;;;8.20;6.10;;;19.20;99.90;;;;;;5075057;28;20055;-76
2022/06/18 02:06:21;;;;;;;10.48;5.68;;;19.20;99.90;;;;;;5091916;28;20040;-77
2022/06/18 02:08:48;;;;;;;8.50;6.03;;;19.10;99.90;;;;;;5091308;28;20548;-76
2022/06/18 02:11:16;;;;;;;8.52;6.65;;;19.10;99.90;;;;;;5090654;28;20111;-76
2022/06/18 02:13:58;;;;;;;7.70;6.05;;;19.10;99.90;;;;;;5090820;28;20031;-77
2022/06/18 02:16:28;;;;;;;8.02;6.07;;;19.00;99.90;;;;;;5094137;28;20048;-76
2022/06/18 02:18:55;;;;;;;9.20;6.28;;;19.00;99.90;;;;;;5092543;28;20114;-76
2022/06/18 02:21:23;;;;;;;8.43;6.80;;;19.00;99.90;;;;;;5095442;28;20044;-77
2022/06/18 02:23:53;;;;;;;10.57;7.28;;;18.90;99.90;;;;;;5078650;28;20073;-77
2022/06/18 02:26:22;;;;;;;9.90;7.70;;;18.90;99.90;;;;;;5095726;28;20527;-77
2022/06/18 02:28:50;;;;;;;11.35;8.10;;;18.90;99.90;;;;;;5095754;28;20035;-77
2022/06/18 02:31:25;;;;;;;10.65;8.35;;;18.90;99.90;;;;;;5095082;28;20040;-77
2022/06/18 02:34:00;;;;;;;12.10;8.98;;;18.80;99.90;;;;;;5095722;28;20040;-77
2022/06/18 02:36:31;;;;;;;12.98;9.15;;;18.80;99.90;;;;;;5095395;28;20252;-76
2022/06/18 02:39:23;;;;;;;10.23;8.88;;;18.80;99.90;;;;;;5095171;28;20046;-77
2022/06/18 02:41:50;;;;;;;12.05;8.85;;;18.70;99.90;;;;;;5095565;28;20067;-76
2022/06/18 02:44:16;;;;;;;;;;;18.70;99.90;;;;;;5095535;28;20082;-77
2022/06/18 02:46:42;;;;;;;11.23;8.98;;;18.70;99.90;;;;;;5095142;28;19971;-77
2022/06/18 02:49:11;;;;;;;11.95;9.35;;;18.70;99.90;;;;;;5094780;28;20399;-76
2022/06/18 02:51:37;;;;;;;12.60;9.25;;;18.70;99.90;;;;;;5095620;28;20391;-77
2022/06/18 02:54:04;;;;;;;13.40;9.82;;;18.60;99.90;;;;;;5094864;28;20043;-77
2022/06/18 02:56:29;;;;;;;10.85;8.77;;;18.50;99.90;;;;;;5092537;28;20040;-76
2022/06/18 02:58:55;;;;;;;12.63;10.18;;;18.40;99.90;;;;;;5095502;28;20058;-77
2022/06/18 03:01:24;;;;;;;14.00;9.80;;;18.40;99.90;;;;;;5094967;28;20051;-77
2022/06/18 03:03:53;;;;;;;11.65;9.63;;;18.40;99.90;;;;;;5078119;28;20058;-77
2022/06/18 03:06:22;;;;;;;13.35;10.05;;;18.30;99.90;;;;;;5092748;28;20391;-76
2022/06/18 03:08:49;;;;;;;13.57;9.82;;;18.30;99.90;;;;;;5095048;28;20471;-76
2022/06/18 03:14:04;;;;;;;16.03;10.50;;;18.20;99.90;;;;;;5080579;28;20043;-76
2022/06/18 03:16:30;;;;;;;14.65;10.95;;;18.20;99.90;;;;;;5094712;28;20104;-77
2022/06/18 03:18:58;;;;;;;15.75;9.90;;;18.10;99.90;;;;;;5095263;28;20040;-76
2022/06/18 03:21:42;;;;;;;11.57;10.02;;;18.10;99.90;;;;;;5094615;28;20047;-76
2022/06/18 03:24:09;;;;;;;12.60;10.57;;;18.00;99.90;;;;;;5077358;28;20127;-76
2022/06/18 03:26:37;;;;;;;;;;;18.00;99.90;;;;;;5093737;28;20040;-77
2022/06/18 03:29:05;;;;;;;17.70;11.82;;;18.00;99.90;;;;;;5077763;28;20395;-77
2022/06/18 03:31:31;;;;;;;14.80;12.38;;;18.00;99.90;;;;;;5094392;28;20040;-76
2022/06/18 03:33:57;;;;;;;17.20;12.95;;;17.90;99.90;;;;;;5094704;28;20123;-76
2022/06/18 03:36:23;;;;;;;18.48;12.65;;;17.90;99.90;;;;;;5077344;28;20118;-77
2022/06/18 03:38:50;;;;;;;17.88;12.95;;;18.00;99.90;;;;;;5094592;28;20483;-76
2022/06/18 03:41:17;;;;;;;18.60;13.05;;;17.90;99.90;;;;;;5094169;28;20078;-76
2022/06/18 03:43:43;;;;;;;15.95;12.90;;;17.90;99.90;;;;;;5094207;28;20039;-76
2022/06/18 03:46:12;;;;;;;17.92;13.20;;;17.90;99.90;;;;;;5094142;28;20463;-76
2022/06/18 03:48:43;;;;;;;18.90;14.10;;;17.80;99.90;;;;;;5074808;28;20040;-76
2022/06/18 03:51:11;;;;;;;21.42;14.00;;;17.80;99.90;;;;;;5093765;28;20035;-76
2022/06/18 03:53:37;;;;;;;18.17;13.65;;;17.80;99.90;;;;;;5093708;28;20035;-78
2022/06/18 03:56:03;;;;;;;;;;;17.80;99.90;;;;;;5077320;28;20051;-76
2022/06/18 03:58:29;;;;;;;21.90;15.13;;;17.80;99.90;;;;;;5094074;28;19916;-76
2022/06/18 04:00:55;;;;;;;24.00;15.40;;;17.80;99.90;;;;;;5094238;28;20486;-76
2022/06/18 04:03:21;;;;;;;20.73;15.02;;;17.80;99.90;;;;;;5093341;28;20051;-76
2022/06/18 04:05:46;;;;;;;21.23;16.10;;;17.80;99.90;;;;;;5077096;28;20099;-76
2022/06/18 04:08:14;;;;;;;26.15;17.02;;;17.80;99.90;;;;;;5093396;28;20036;-77
2022/06/18 04:10:40;;;;;;;22.45;16.35;;;17.80;99.90;;;;;;5093682;28;20035;-77
2022/06/18 04:13:06;;;;;;;21.17;16.67;;;17.70;99.90;;;;;;5096274;28;20036;-76
2022/06/18 04:15:32;;;;;;;27.10;17.48;;;17.70;99.90;;;;;;5093976;28;20471;-77
2022/06/18 04:17:57;;;;;;;24.98;18.23;;;17.70;99.90;;;;;;5094104;28;20123;-76
2022/06/18 04:20:29;;;;;;;26.27;17.95;;;17.70;99.90;;;;;;5076577;28;20039;-76
2022/06/18 04:22:55;;;;;;;25.73;17.90;;;17.70;99.90;;;;;;5074726;28;20082;-76
2022/06/18 04:25:21;;;;;;;25.30;18.92;;;17.70;99.90;;;;;;5093014;28;20129;-77
2022/06/18 04:27:47;;;;;;;21.13;18.17;;;17.70;99.90;;;;;;5093170;28;20044;-76
2022/06/18 04:30:13;;;;;;;;;;;17.70;99.90;;;;;;5093594;28;20027;-76
2022/06/18 04:32:39;;;;;;;26.13;18.23;;;17.60;99.90;;;;;;5093141;28;19994;-76
2022/06/18 04:35:08;;;;;;;26.20;19.35;;;17.60;99.90;;;;;;5091153;28;20070;-77
2022/06/18 04:37:33;;;;;;;25.52;18.20;;;17.70;99.90;;;;;;5075590;28;20039;-77
2022/06/18 04:39:59;;;;;;;30.67;19.65;;;17.70;99.90;;;;;;5092419;28;20038;-77
2022/06/18 04:42:25;;;;;;;27.75;19.60;;;17.70;99.90;;;;;;5075101;28;20043;-77
2022/06/18 04:44:52;;;;;;;24.40;17.67;;;17.70;99.90;;;;;;5075260;28;20048;-77
2022/06/18 04:47:18;;;;;;;28.67;19.80;;;17.80;99.90;;;;;;5075760;28;20067;-77
2022/06/18 04:49:43;;;;;;;24.48;18.58;;;17.80;99.90;;;;;;5098830;28;20034;-77
2022/06/18 04:52:09;;;;;;;25.42;18.23;;;17.80;99.90;;;;;;5064869;28;20084;-77
2022/06/18 04:54:35;;;;;;;26.83;18.23;;;17.80;99.90;;;;;;5092792;28;20172;-77
2022/06/18 04:57:01;;;;;;;30.48;19.23;;;17.80;99.90;;;;;;5093272;28;20119;-77
2022/06/18 04:59:27;;;;;;;32.65;18.33;;;17.80;99.90;;;;;;5058618;28;20039;-76
2022/06/18 05:02:12;;;;;;;30.27;19.08;;;17.90;99.90;;;;;;5092734;28;20043;-76
2022/06/18 05:04:38;;;;;;;25.60;18.40;;;18.00;99.90;;;;;;5090303;28;20047;-77
2022/06/18 05:07:04;;;;;;;26.05;19.00;;;18.10;99.90;;;;;;5092839;28;20048;-77
2022/06/18 05:09:30;;;;;;;;;;;18.10;99.90;;;;;;5076216;28;20035;-76
2022/06/18 05:11:56;;;;;;;33.10;17.80;;;18.10;99.90;;;;;;5126981;27;20310;-76
2022/06/18 05:14:21;;;;;;;27.20;18.15;;;18.10;99.90;;;;;;5092241;28;21139;-77
2022/06/18 05:16:47;;;;;;;27.67;18.33;;;18.20;99.90;;;;;;5092125;28;20051;-77
2022/06/18 05:19:23;;;;;;;25.17;17.60;;;18.20;99.90;;;;;;5092152;28;20032;-77
2022/06/18 05:21:50;;;;;;;26.48;18.10;;;18.30;99.90;;;;;;5092397;28;20105;-78
2022/06/18 05:24:15;;;;;;;28.65;19.00;;;18.20;99.90;;;;;;5092235;28;20031;-77
2022/06/18 05:26:48;;;;;;;29.85;18.42;;;18.30;99.90;;;;;;5091943;28;20499;-77
2022/06/18 05:29:15;;;;;;;27.55;18.40;;;18.50;99.90;;;;;;5089743;28;20046;-77
2022/06/18 05:31:41;;;;;;;26.20;17.38;;;18.50;99.90;;;;;;5074869;28;20106;-77
2022/06/18 05:34:07;;;;;;;24.52;16.60;;;18.60;99.90;;;;;;5075761;28;20107;-77
2022/06/18 05:36:33;;;;;;;31.25;17.73;;;18.70;99.90;;;;;;5075561;28;20118;-76
2022/06/18 05:39:00;;;;;;;23.15;16.92;;;18.80;99.90;;;;;;5075496;28;20040;-76
2022/06/18 05:41:26;;;;;;;29.35;16.65;;;18.90;99.90;;;;;;5074966;28;20101;-77
2022/06/18 05:43:52;;;;;;;27.50;16.48;;;19.10;99.90;;;;;;5075627;28;20050;-76
2022/06/18 05:46:18;;;;;;;26.20;17.17;;;19.10;99.90;;;;;;5091774;28;20039;-77
2022/06/18 05:48:44;;;;;;;24.40;15.90;;;19.20;99.90;;;;;;5088944;28;20091;-77
2022/06/18 05:51:09;;;;;;;23.88;15.75;;;19.30;99.90;;;;;;5092123;28;20444;-76
2022/06/18 05:53:35;;;;;;;24.55;16.27;;;19.40;99.90;;;;;;5074910;28;20559;-76
2022/06/18 05:56:01;;;;;;;26.55;16.10;;;19.60;99.90;;;;;;5092256;28;20046;-76
2022/06/18 05:58:27;;;;;;;21.52;15.73;;;19.70;99.90;;;;;;5078536;28;20040;-76
2022/06/18 06:00:53;;;;;;;22.67;16.20;;;19.90;99.90;;;;;;5091934;28;20054;-77
2022/06/18 06:03:19;;;;;;;20.08;15.15;;;20.00;99.90;;;;;;5091880;28;20036;-77
2022/06/18 06:05:44;;;;;;;21.00;14.25;;;20.30;99.90;;;;;;5109619;28;20122;-77
2022/06/18 06:08:14;;;;;;;23.23;13.27;;;20.60;99.90;;;;;;5092097;28;20045;-77
2022/06/18 06:13:25;;;;;;;20.63;11.63;;;21.10;99.90;;;;;;5077295;28;20058;-76
2022/06/18 06:15:53;;;;;;;17.75;10.95;;;21.50;99.90;;;;;;5058442;28;20035;-77
2022/06/18 06:18:21;;;;;;;19.95;10.63;;;21.90;99.90;;;;;;5091652;28;20383;-77
2022/06/18 06:20:53;;;;;;;14.38;10.25;;;22.20;99.90;;;;;;5091745;28;20106;-77
2022/06/18 06:23:19;;;;;;;21.65;10.43;;;22.40;99.90;;;;;;5090715;28;20048;-76
2022/06/18 06:25:45;;;;;;;;;;;22.50;99.90;;;;;;5092210;28;20348;-77
2022/06/18 06:28:30;;;;;;;16.63;8.90;;;22.50;99.90;;;;;;5108868;28;19924;-78
2022/06/18 06:30:56;;;;;;;15.80;8.70;;;22.80;99.90;;;;;;5092036;28;20476;-77
2022/06/18 06:33:22;;;;;;;13.27;8.57;;;23.10;99.90;;;;;;5090826;28;20031;-77
2022/06/18 06:35:48;;;;;;;;;;;23.20;99.90;;;;;;5091523;28;20096;-77
2022/06/18 06:38:15;;;;;;;13.85;8.13;;;23.10;99.90;;;;;;5092007;28;19915;-81
2022/06/18 06:40:43;;;;;;;17.85;8.60;;;23.20;99.90;;;;;;5092419;28;20483;-83
2022/06/18 06:43:13;;;;;;;13.98;8.02;;;23.20;99.90;;;;;;5093049;28;20088;-85
2022/06/18 06:45:39;;;;;;;13.88;7.70;;;23.30;99.90;;;;;;5092308;28;20032;-84
2022/06/18 06:48:05;;;;;;;;;;;23.30;99.90;;;;;;5076678;28;20038;-85
2022/06/18 06:50:31;;;;;;;18.00;8.75;;;23.30;99.90;;;;;;5092349;28;20441;-84
2022/06/18 06:52:57;;;;;;;11.63;7.20;;;23.50;99.90;;;;;;5090990;28;20039;-84
2022/06/18 06:58:26;;;;;;;13.43;5.18;;;23.50;99.90;;;;;;5091415;28;20392;-81
2022/06/18 07:00:54;;;;;;;10.93;5.25;;;23.70;99.90;;;;;;5092256;28;20036;-83
2022/06/18 07:03:27;;;;;;;15.18;5.00;;;23.90;99.90;;;;;;5095604;28;20093;-83
2022/06/18 07:05:53;;;;;;;9.25;4.97;;;24.00;99.90;;;;;;5096261;28;20047;-83
2022/06/18 07:08:19;;;;;;;9.50;5.07;;;24.30;99.90;;;;;;5076676;28;20050;-81
2022/06/18 07:10:48;;;;;;;;;;;24.20;99.90;;;;;;5079092;28;20035;-83
2022/06/18 07:13:14;;;;;;;10.82;5.63;;;24.20;99.90;;;;;;5096108;28;19915;-82
2022/06/18 07:15:40;;;;;;;;;;;24.40;99.90;;;;;;5096172;28;20051;-81
2022/06/18 07:18:15;;;;;;;11.60;5.80;;;24.40;99.90;;;;;;5096502;28;19930;-82
2022/06/18 07:20:42;;;;;;;13.07;5.85;;;24.40;99.90;;;;;;5095686;28;20097;-82
2022/06/18 07:23:08;;;;;;;12.25;5.97;;;24.50;99.90;;;;;;5095447;28;20048;-82
2022/06/18 07:25:34;;;;;;;12.02;6.00;;;24.70;99.90;;;;;;5068998;28;20051;-82
2022/06/18 07:28:00;;;;;;;13.18;6.03;;;24.70;99.90;;;;;;5095464;28;20051;-82
2022/06/18 07:30:26;;;;;;;;;;;24.60;99.90;;;;;;5096128;28;20036;-83
2022/06/18 07:32:52;;;;;;;10.75;5.75;;;24.70;99.90;;;;;;5078986;28;20364;-83
2022/06/18 07:35:24;;;;;;;10.48;5.50;;;24.80;99.90;;;;;;5095885;28;20039;-84
2022/06/18 07:37:50;;;;;;;9.68;5.28;;;24.90;99.90;;;;;;5079205;28;20483;-82
2022/06/18 07:40:16;;;;;;;9.27;4.82;;;25.00;99.90;;;;;;5079146;28;20057;-82
2022/06/18 07:42:45;;;;;;;11.50;4.15;;;25.10;99.90;;;;;;5093572;28;20592;-82
2022/06/18 07:45:20;;;;;;;11.80;5.20;;;25.10;99.90;;;;;;5078902;28;20032;-78
2022/06/18 07:47:46;;;;;;;12.52;4.55;;;25.10;99.90;;;;;;5095039;28;20143;-77
2022/06/18 07:50:13;;;;;;;7.10;4.38;;;25.40;99.90;;;;;;5078398;28;20031;-79
2022/06/18 07:52:39;;;;;;;9.23;4.13;;;25.40;99.90;;;;;;5094824;28;20070;-81
2022/06/18 07:55:06;;;;;;;7.00;4.28;;;25.50;99.90;;;;;;5078439;28;20032;-83
2022/06/18 07:57:32;;;;;;;9.73;4.25;;;25.70;99.90;;;;;;5094180;28;20048;-78
2022/06/18 07:59:57;;;;;;;6.97;3.85;;;25.50;99.90;;;;;;5092448;28;20043;-79
2022/06/18 08:02:23;;;;;;;7.10;3.67;;;25.70;99.90;;;;;;5094508;28;20044;-79
2022/06/18 08:04:49;;;;;;;8.23;4.05;;;25.50;99.90;;;;;;5095090;28;20379;-81
2022/06/18 08:07:15;;;;;;;8.07;2.85;;;25.70;99.90;;;;;;5044871;28;20045;-78
2022/06/18 08:09:41;;;;;;;6.88;2.70;;;25.80;99.90;;;;;;5094105;28;20070;-79
2022/06/18 08:12:07;;;;;;;7.88;2.83;;;26.00;99.90;;;;;;5094350;28;20066;-80
2022/06/18 08:14:32;;;;;;;5.88;2.47;;;26.00;99.90;;;;;;5077563;28;20075;-80
2022/06/18 08:16:58;;;;;;;8.35;2.45;;;26.00;99.90;;;;;;5077788;28;20075;-80
2022/06/18 08:19:24;;;;;;;5.70;2.00;;;26.00;99.90;;;;;;5077672;28;20088;-79
2022/06/18 08:21:50;;;;;;;4.47;1.80;;;26.00;99.90;;;;;;5093730;28;20051;-80
2022/06/18 08:24:21;;;;;;;5.10;2.47;;;26.20;99.90;;;;;;5094422;28;20367;-81
2022/06/18 08:26:49;;;;;;;6.85;1.90;;;26.50;99.90;;;;;;5090785;28;20087;-81
2022/06/18 08:29:17;;;;;;;5.25;1.73;;;26.60;99.90;;;;;;5091439;28;20077;-82
2022/06/18 08:31:44;;;;;;;5.03;1.67;;;26.60;99.90;;;;;;5090847;28;20123;-81
2022/06/18 08:34:09;;;;;;;3.45;1.38;;;26.80;99.90;;;;;;5091607;28;20028;-79
2022/06/18 08:36:36;;;;;;;19.63;8.82;;;26.90;99.90;;;;;;5073386;28;20081;-79
2022/06/18 08:39:03;;;;;;;5.63;1.50;;;27.00;99.90;;;;;;5090924;28;20129;-80
2022/06/18 08:41:29;;;;;;;3.67;1.00;;;27.20;99.90;;;;;;5095418;28;20071;-82
2022/06/18 08:44:19;;;;;;;3.00;1.35;;;27.10;99.90;;;;;;5098592;28;20036;-79
2022/06/18 08:47:13;;;;;;;1.77;0.70;;;27.20;99.90;;;;;;5089876;28;20143;-79
2022/06/18 08:50:12;;;;;;;2.40;0.80;;;27.20;99.90;;;;;;5105238;28;20118;-80
2022/06/18 08:52:59;;;;;;;4.70;0.88;;;27.20;99.90;;;;;;5088451;28;20046;-79
2022/06/18 08:55:34;;;;;;;;;;;26.80;99.90;;;;;;5107415;28;20044;-77
2022/06/18 08:58:18;;;;;;;2.28;1.00;;;26.60;99.90;;;;;;5090697;28;19916;-77
2022/06/18 09:01:13;;;;;;;4.05;1.30;;;26.50;99.90;;;;;;5089742;28;20044;-79
2022/06/18 09:04:16;;;;;;;4.32;1.40;;;26.50;99.90;;;;;;5073180;28;20040;-77
2022/06/18 09:07:04;;;;;;;2.35;1.00;;;26.40;99.90;;;;;;5089779;28;20051;-75
2022/06/18 09:09:46;;;;;;;3.10;0.80;;;26.50;99.90;;;;;;5090673;28;20067;-77
2022/06/18 09:12:43;;;;;;;3.58;1.00;;;26.60;99.90;;;;;;5092844;28;20092;-79
2022/06/18 09:15:36;;;;;;;2.97;0.80;;;26.60;99.90;;;;;;5090213;28;20472;-79
2022/06/18 09:18:23;;;;;;;3.90;0.60;;;26.60;99.90;;;;;;5086397;28;20411;-78
2022/06/18 09:20:55;;;;;;;1.88;0.90;;;26.70;99.90;;;;;;5090935;28;20036;-77
2022/06/18 09:23:46;;;;;;;2.05;0.80;;;26.90;99.90;;;;;;5088695;28;20051;-77
2022/06/18 09:26:21;;;;;;;2.45;0.80;;;26.90;99.90;;;;;;5090757;28;20454;-77
2022/06/18 09:28:55;;;;;;;3.90;0.80;;;27.10;99.90;;;;;;5091827;28;20044;-77
2022/06/18 09:31:40;;;;;;;2.78;0.80;;;27.10;99.90;;;;;;5072065;28;20044;-77
2022/06/18 09:34:20;;;;;;;4.00;1.00;;;27.30;99.90;;;;;;5073952;28;20063;-77
2022/06/18 09:36:51;;;;;;;1.67;0.77;;;27.50;99.90;;;;;;5089896;28;20400;-78
2022/06/18 09:39:28;;;;;;;2.67;1.00;;;27.40;99.90;;;;;;5088478;28;20043;-78
2022/06/18 09:42:04;;;;;;;4.50;1.25;;;27.60;99.90;;;;;;5090179;28;20698;-77
2022/06/18 09:44:36;;;;;;;2.75;1.00;;;27.70;99.90;;;;;;5091097;28;20083;-77
2022/06/18 09:47:09;;;;;;;3.15;0.80;;;27.90;99.90;;;;;;5096181;28;20048;-77
2022/06/18 09:49:35;;;;;;;4.30;0.80;;;27.90;99.90;;;;;;5073136;28;20047;-78
2022/06/18 09:52:24;;;;;;;2.33;1.02;;;28.00;99.90;;;;;;5074044;28;20388;-77
2022/06/18 09:54:56;;;;;;;2.75;1.10;;;27.90;99.90;;;;;;5091663;28;20395;-76
2022/06/18 09:57:26;;;;;;;3.63;0.82;;;27.80;99.90;;;;;;5069951;28;20496;-78
2022/06/18 10:00:07;;;;;;;3.03;0.68;;;27.60;99.90;;;;;;5090517;28;20032;-77
2022/06/18 10:02:36;;;;;;;3.13;0.73;;;27.80;99.90;;;;;;5091792;28;20095;-78
2022/06/18 10:07:52;;;;;;;3.78;0.60;;;28.20;99.90;;;;;;5088435;28;20055;-77
2022/06/18 10:10:22;;;;;;;2.03;0.63;;;28.20;99.90;;;;;;5075552;28;20043;-78
2022/06/18 10:12:55;;;;;;;2.60;0.80;;;28.10;99.90;;;;;;5090941;28;20380;-78
2022/06/18 10:15:23;;;;;;;1.98;0.70;;;27.80;99.90;;;;;;5088143;28;20122;-78
2022/06/18 10:18:19;;;;;;;3.78;0.70;;;27.70;99.90;;;;;;5091336;28;20032;-77
2022/06/18 10:21:09;;;;;;;4.70;0.70;;;28.10;99.90;;;;;;5088492;28;20051;-77
2022/06/18 10:24:11;;;;;;;4.05;0.82;;;28.30;99.90;;;;;;5090277;28;20044;-78
2022/06/18 10:26:59;;;;;;;1.85;0.60;;;28.50;99.90;;;;;;5071097;28;20400;-77
2022/06/18 10:29:25;;;;;;;2.25;0.60;;;28.90;99.90;;;;;;5089508;28;20036;-77
2022/06/18 10:32:05;;;;;;;3.50;0.73;;;29.00;99.90;;;;;;5090136;28;20487;-77
2022/06/18 10:35:12;;;;;;;2.95;0.73;;;29.10;99.90;;;;;;5073680;28;20045;-77
2022/06/18 10:37:44;;;;;;;3.83;1.10;;;28.70;99.90;;;;;;5084588;28;20044;-77
2022/06/18 10:40:25;;;;;;;2.08;0.98;;;28.60;99.90;;;;;;5077175;28;20043;-77
2022/06/18 10:43:06;;;;;;;1.67;0.60;;;28.60;99.90;;;;;;5093925;28;20067;-77
2022/06/18 10:45:54;;;;;;;1.98;0.57;;;28.70;99.90;;;;;;5093801;28;20055;-77
2022/06/18 10:48:45;;;;;;;2.05;0.68;;;28.60;99.90;;;;;;5091379;28;20048;-77
2022/06/18 10:51:17;;;;;;;2.42;0.80;;;29.00;99.90;;;;;;5127438;27;20043;-78
2022/06/18 10:53:47;;;;;;;4.95;0.55;;;29.10;99.90;;;;;;5093645;28;20522;-77
2022/06/18 10:56:29;;;;;;;3.22;0.80;;;29.10;99.70;;;;;;5093626;28;20040;-77
2022/06/18 10:58:58;;;;;;;1.75;0.40;;;29.10;99.10;;;;;;5094027;28;20104;-77
2022/06/18 11:01:44;;;;;;;1.63;0.50;;;29.50;99.90;;;;;;5077200;28;20032;-82
2022/06/18 11:04:21;;;;;;;2.00;0.73;;;29.70;99.90;;;;;;5093263;28;20036;-83
2022/06/18 11:06:49;;;;;;;2.80;0.63;;;30.10;99.80;;;;;;5092907;28;20102;-82
2022/06/18 11:09:26;;;;;;;1.73;0.40;;;30.20;99.20;;;;;;5076541;28;20428;-81
2022/06/18 11:12:03;;;;;;;1.70;0.60;;;30.10;99.00;;;;;;5093582;28;20040;-80
2022/06/18 11:14:38;;;;;;;2.00;0.50;;;30.10;98.30;;;;;;5075589;28;20032;-80
2022/06/18 11:17:18;;;;;;;0.80;0.38;;;30.00;98.80;;;;;;5099281;28;20040;-83
2022/06/18 11:19:48;;;;;;;3.08;0.52;;;30.20;97.80;;;;;;5098424;28;20032;-84
2022/06/18 11:22:28;;;;;;;1.52;0.40;;;30.20;98.40;;;;;;5079770;28;20040;-81
2022/06/18 11:25:00;;;;;;;2.50;0.70;;;30.00;98.90;;;;;;5095823;28;20388;-81
2022/06/18 11:27:37;;;;;;;1.73;0.50;;;29.70;98.60;;;;;;5096747;28;20040;-81
2022/06/18 11:30:09;;;;;;;2.03;0.50;;;29.80;98.30;;;;;;5080339;28;20035;-79
2022/06/18 11:32:41;;;;;;;1.60;0.40;;;29.90;98.40;;;;;;5080692;28;20092;-85
2022/06/18 11:35:24;;;;;;;2.53;0.40;;;30.20;98.60;;;;;;5102507;28;20039;-83
2022/06/18 11:37:59;;;;;;;1.63;0.40;;;30.20;97.60;;;;;;5099553;28;20071;-81
2022/06/18 11:40:26;;;;;;;2.50;0.30;;;30.30;98.70;;;;;;5095884;28;20495;-82
2022/06/18 11:43:03;;;;;;;1.75;0.30;;;30.60;98.40;;;;;;5080484;28;20044;-83
2022/06/18 11:45:51;;;;;;;3.55;0.50;;;30.50;97.70;;;;;;5079819;28;20530;-82
2022/06/18 11:48:37;;;;;;;1.88;0.47;;;30.70;98.40;;;;;;5097105;28;20040;-83
2022/06/18 11:51:22;;;;;;;2.30;0.30;;;30.60;98.30;;;;;;5099454;28;20040;-84
2022/06/18 11:54:32;;;;;;;1.77;0.40;;;31.00;97.40;;;;;;5099098;28;20377;-83
2022/06/18 11:57:28;;;;;;;2.97;0.60;;;31.20;97.80;;;;;;5124473;27;20039;-86
2022/06/18 11:59:56;;;;;;;1.95;0.60;;;31.00;97.30;;;;;;5078598;28;20032;-87
2022/06/18 12:02:27;;;;;;;3.10;0.73;;;30.60;96.90;;;;;;5095739;28;20541;-87
2022/06/18 12:05:08;;;;;;;3.70;0.80;;;30.50;97.30;;;;;;5094759;28;20074;-87
2022/06/18 12:07:40;;;;;;;3.80;0.80;;;30.50;97.20;;;;;;5077300;28;20091;-87
2022/06/18 12:10:17;;;;;;;3.90;0.73;;;30.50;97.20;;;;;;5094979;28;20048;-87
2022/06/18 12:12:51;;;;;;;5.10;0.80;;;30.10;97.10;;;;;;5065449;28;20036;-87
2022/06/18 12:15:29;;;;;;;2.70;0.60;;;30.20;97.80;;;;;;5095443;28;20122;-87
2022/06/18 12:18:05;;;;;;;5.25;0.90;;;30.30;97.30;;;;;;5094156;28;20040;-88
2022/06/18 12:20:55;;;;;;;4.63;0.90;;;30.10;96.80;;;;;;5095400;28;20032;-87
2022/06/18 12:23:26;;;;;;;4.03;0.70;;;30.20;97.10;;;;;;5076577;28;20063;-88
2022/06/18 12:26:29;;;;;;;2.58;0.77;;;30.20;96.90;;;;;;5094561;28;20056;-87
2022/06/18 12:29:19;;;;;;;4.07;0.82;;;30.40;96.50;;;;;;5034853;28;20040;-88
2022/06/18 12:32:18;;;;;;;3.28;0.98;;;30.20;96.60;;;;;;5094103;28;20042;-88
2022/06/18 12:35:08;;;;;;;3.13;0.80;;;29.70;96.70;;;;;;5077637;28;20035;-87
2022/06/18 12:37:33;;;;;;;6.88;1.05;;;29.60;97.00;;;;;;5076562;28;20050;-88
2022/06/18 12:40:03;;;;;;;4.38;0.68;;;29.50;96.70;;;;;;5078007;28;20496;-88
2022/06/18 12:42:35;;;;;;;4.70;1.13;;;29.60;97.00;;;;;;5075790;28;20086;-87
2022/06/18 12:45:12;;;;;;;3.17;0.88;;;29.50;97.10;;;;;;5094479;28;20067;-88
2022/06/18 12:47:47;;;;;;;5.53;0.95;;;29.70;97.00;;;;;;5110550;28;20080;-88
2022/06/18 12:50:54;;;;;;;5.00;0.80;;;29.60;96.40;;;;;;5112904;28;20046;-87
2022/06/18 12:53:23;;;;;;;4.40;0.80;;;29.30;96.40;;;;;;4998882;28;20048;-80
2022/06/18 12:56:07;;;;;;;5.95;1.35;;;29.50;96.80;;;;;;5077525;28;20042;-80
2022/06/18 12:59:02;;;;;;;5.63;1.10;;;29.30;96.60;;;;;;5093697;28;20071;-79
2022/06/18 13:01:47;;;;;;;5.07;0.80;;;29.40;96.30;;;;;;5093300;28;20036;-81
2022/06/18 13:04:35;;;;;;;3.33;0.90;;;29.20;96.60;;;;;;5077263;28;20043;-80
2022/06/18 13:07:36;;;;;;;5.15;1.00;;;29.30;96.30;;;;;;5045667;28;20040;-80
2022/06/18 13:10:06;;;;;;;5.35;1.10;;;29.70;96.50;;;;;;5062526;28;20103;-83
2022/06/18 13:12:51;;;;;;;9.23;1.35;;;29.70;96.00;;;;;;5075327;28;20483;-83
2022/06/18 13:15:42;;;;;;;5.22;1.20;;;29.50;96.00;;;;;;5094232;28;20043;-80
2022/06/18 13:18:17;;;;;;;6.88;1.58;;;29.00;95.90;;;;;;5077054;28;20093;-80
2022/06/18 13:21:04;;;;;;;6.65;1.70;;;28.50;95.90;;;;;;5093673;28;20088;-82
2022/06/18 13:29:23;;;;;;;4.10;0.80;;;27.80;96.30;;;;;;5094584;28;20169;-83
2022/06/18 13:32:00;;;;;;;5.30;0.93;;;27.60;96.10;;;;;;5095682;28;20429;-83
2022/06/18 13:34:35;;;;;;;6.45;1.35;;;27.30;96.40;;;;;;5079153;28;20036;-81